Time;durP1;ratioP1;P1;durP2;ratioP2;P2;SDS_P1;SDS_P2;PMS_P1;PMS_P2;Temp;Humidity;BMP_temperature;BMP_pressure;BME280_temperature;BME280_humidity;BME280_pressure;Samples;Min_cycle;Max_cycle;Signal;HPM_P1;HPM_P2
2021/09/03 00:02:25;;;;;;;0.77;0.70;;;;;;;13.72;100.00;-8896.03;6251735;22;20411;-72
2021/09/03 00:04:52;;;;;;;0.70;0.60;;;;;;;13.67;100.00;-9188.72;6225870;22;20431;-72
2021/09/03 00:07:19;;;;;;;2.03;1.93;;;;;;;13.64;100.00;-9494.06;6278098;22;20422;-72
2021/09/03 00:09:46;;;;;;;0.70;0.60;;;;;;;13.51;100.00;-9937.38;6250597;22;20422;-73
2021/09/03 00:12:15;;;;;;;1.00;0.90;;;;;;;13.60;100.00;-9950.78;6277880;22;20383;-72
2021/09/03 00:14:41;;;;;;;0.80;0.70;;;;;;;13.56;100.00;-10372.00;6278498;22;20404;-72
2021/09/03 00:17:09;;;;;;;0.70;0.60;;;;;;;13.52;100.00;-10704.91;6277064;22;20908;-72
2021/09/03 00:19:36;;;;;;;0.90;0.80;;;;;;;13.63;100.00;-11013.97;6278608;22;20858;-72
2021/09/03 00:22:03;;;;;;;0.90;0.90;;;;;;;13.52;100.00;-11371.22;6251815;22;20398;-73
2021/09/03 00:24:30;;;;;;;0.70;0.63;;;;;;;13.51;100.00;-11275.19;6278082;22;20463;-72
2021/09/03 00:26:57;;;;;;;0.80;0.80;;;;;;;13.50;100.00;-11254.91;6251695;22;20378;-72
2021/09/03 00:29:25;;;;;;;0.80;0.70;;;;;;;13.49;100.00;-11451.56;6278209;22;20824;-72
2021/09/03 00:31:53;;;;;;;0.70;0.70;;;;;;;13.41;100.00;-11546.53;6278152;22;20371;-72
2021/09/03 00:34:20;;;;;;;0.80;0.70;;;;;;;13.35;100.00;-11480.22;6277199;22;20854;-73
2021/09/03 00:36:48;;;;;;;0.70;0.70;;;;;;;13.32;100.00;-11449.59;6276853;22;20403;-72
2021/09/03 00:39:16;;;;;;;0.70;0.60;;;;;;;13.28;100.00;-11522.31;6250795;22;20403;-72
2021/09/03 00:41:44;;;;;;;0.70;0.60;;;;;;;13.22;100.00;-11627.47;6251590;22;20445;-73
2021/09/03 00:44:11;;;;;;;0.70;0.70;;;;;;;13.14;100.00;-12087.97;6278262;22;20422;-72
2021/09/03 00:46:40;;;;;;;0.70;0.67;;;;;;;13.23;100.00;-12283.31;6250627;22;20388;-72
2021/09/03 00:49:07;;;;;;;0.70;0.60;;;;;;;13.20;100.00;-12651.13;6278207;22;20398;-71
2021/09/03 00:51:36;;;;;;;0.70;0.60;;;;;;;13.18;100.00;-12648.25;6278419;22;20672;-70
2021/09/03 00:54:03;;;;;;;0.70;0.60;;;;;;;13.32;100.00;-12440.91;6277290;22;20493;-72
2021/09/03 00:56:31;;;;;;;0.70;0.63;;;;;;;13.28;100.00;-12579.06;6277117;22;20441;-72
2021/09/03 00:58:58;;;;;;;0.70;0.60;;;;;;;13.27;100.00;-12548.66;6251114;22;20387;-72
2021/09/03 01:01:25;;;;;;;0.70;0.70;;;;;;;13.26;100.00;-12674.66;6250789;22;20434;-72
2021/09/03 01:03:54;;;;;;;0.70;0.60;;;;;;;13.29;100.00;-12866.66;6277278;22;20451;-72
2021/09/03 01:06:21;;;;;;;0.70;0.60;;;;;;;13.41;100.00;-13055.00;6250306;22;20485;-72
2021/09/03 01:08:48;;;;;;;0.70;0.60;;;;;;;13.37;100.00;-13412.47;6276828;22;20765;-72
2021/09/03 01:11:15;;;;;;;0.70;0.60;;;;;;;13.33;100.00;-13510.22;6277721;22;20389;-71
2021/09/03 01:13:42;;;;;;;0.70;0.70;;;;;;;13.28;100.00;-13375.81;6276328;22;20453;-72
2021/09/03 01:16:09;;;;;;;0.70;0.60;;;;;;;13.26;100.00;-13219.22;6277869;22;20703;-72
2021/09/03 01:18:36;;;;;;;0.70;0.60;;;;;;;13.23;100.00;-13223.88;6276814;22;20466;-72
2021/09/03 01:21:04;;;;;;;0.70;0.60;;;;;;;13.12;100.00;-13393.56;6250641;22;20386;-72
2021/09/03 01:23:33;;;;;;;0.80;0.73;;;;;;;13.06;100.00;-13715.38;6277501;22;20462;-72
2021/09/03 01:26:01;;;;;;;0.70;0.60;;;;;;;13.00;100.00;-13981.47;6278602;22;20797;-71
2021/09/03 01:28:28;;;;;;;0.70;0.60;;;;;;;12.92;100.00;-14348.03;6250342;22;20411;-71
2021/09/03 01:30:55;;;;;;;0.70;0.60;;;;;;;12.84;100.00;-14669.06;6251229;22;20399;-72
2021/09/03 01:33:24;;;;;;;0.70;0.60;;;;;;;12.77;100.00;-15005.25;6249748;22;20399;-71
2021/09/03 01:35:51;;;;;;;0.90;0.90;;;;;;;12.73;100.00;-15342.00;6277931;22;20378;-72
2021/09/03 01:38:19;;;;;;;0.80;0.70;;;;;;;12.69;100.00;-15779.22;6250973;22;20434;-72
2021/09/03 01:40:47;;;;;;;0.70;0.60;;;;;;;12.67;100.00;-16136.22;6277685;22;20437;-71
2021/09/03 01:43:15;;;;;;;0.70;0.60;;;;;;;12.75;100.00;-16492.53;6276745;22;20387;-72
2021/09/03 01:45:42;;;;;;;0.70;0.60;;;;;;;12.80;100.00;-16944.00;6277193;22;20394;-72
2021/09/03 01:48:10;;;;;;;0.70;0.60;;;;;;;12.79;100.00;-17351.53;6224356;22;20460;-72
2021/09/03 01:50:37;;;;;;;0.70;0.70;;;;;;;12.74;100.00;-17755.38;6277110;22;20752;-71
2021/09/03 01:53:04;;;;;;;0.70;0.60;;;;;;;12.73;100.00;-17966.47;6251050;22;20404;-71
2021/09/03 01:55:31;;;;;;;1.10;1.10;;;;;;;12.78;100.00;-17995.25;6250437;22;20389;-72
2021/09/03 01:57:59;;;;;;;0.70;0.70;;;;;;;12.82;100.00;-18162.19;6250894;22;20372;-72
2021/09/03 02:00:26;;;;;;;0.70;0.70;;;;;;;12.82;100.00;-18293.00;6277371;22;20392;-71
2021/09/03 02:02:53;;;;;;;0.70;0.67;;;;;;;12.81;100.00;-18479.03;6276695;22;20466;-71
2021/09/03 02:05:21;;;;;;;0.70;0.70;;;;;;;12.79;100.00;-18679.66;6249691;22;20513;-71
2021/09/03 02:07:48;;;;;;;0.70;0.60;;;;;;;12.73;100.00;-18773.78;6224655;22;20423;-72
2021/09/03 02:10:15;;;;;;;0.70;0.60;;;;;;;12.71;100.00;-18778.44;6249995;22;20410;-72
2021/09/03 02:12:41;;;;;;;0.70;0.60;;;;;;;12.66;100.00;-18842.50;6276758;22;20367;-72
2021/09/03 02:15:10;;;;;;;0.70;0.60;;;;;;;12.61;100.00;-18838.78;6277513;22;20387;-71
2021/09/03 02:17:37;;;;;;;0.73;0.70;;;;;;;12.55;100.00;-18938.16;6277545;22;20365;-71
2021/09/03 02:20:06;;;;;;;0.70;0.60;;;;;;;12.50;100.00;-18979.66;6251031;22;20455;-71
2021/09/03 02:22:33;;;;;;;0.70;0.70;;;;;;;12.46;100.00;-18986.25;6276521;22;20985;-72
2021/09/03 02:25:00;;;;;;;0.70;0.60;;;;;;;12.46;100.00;-18988.75;6250627;22;20441;-72
2021/09/03 02:27:27;;;;;;;0.73;0.70;;;;;;;12.43;100.00;-19003.09;6250220;22;20829;-71
2021/09/03 02:29:54;;;;;;;0.80;0.80;;;;;;;12.40;100.00;-18932.00;6274495;22;20394;-72
2021/09/03 02:32:22;;;;;;;0.70;0.60;;;;;;;12.37;100.00;-19006.66;6275624;22;20473;-71
2021/09/03 02:34:49;;;;;;;1.23;1.13;;;;;;;12.31;100.00;-18982.59;6223692;22;20406;-72
2021/09/03 02:37:17;;;;;;;0.70;0.70;;;;;;;12.29;100.00;-18904.22;6277003;22;20396;-71
2021/09/03 02:39:43;;;;;;;0.70;0.70;;;;;;;12.23;100.00;-18948.00;6275753;22;20444;-71
2021/09/03 02:42:10;;;;;;;0.70;0.70;;;;;;;12.21;100.00;-19042.97;6249530;22;21001;-71
2021/09/03 02:44:37;;;;;;;0.70;0.60;;;;;;;12.18;100.00;-19117.63;6276155;22;20894;-72
2021/09/03 02:47:04;;;;;;;0.70;0.60;;;;;;;12.16;100.00;-19222.75;6276270;22;20393;-71
2021/09/03 02:49:33;;;;;;;0.70;0.70;;;;;;;12.15;100.00;-19307.78;6249118;22;20443;-71
2021/09/03 02:52:00;;;;;;;0.70;0.60;;;;;;;12.16;100.00;-19323.13;6255151;22;20372;-72
2021/09/03 02:54:27;;;;;;;0.80;0.80;;;;;;;12.20;100.00;-19296.59;6249759;22;20463;-71
2021/09/03 02:56:55;;;;;;;0.90;0.80;;;;;;;12.27;100.00;-19313.41;6276573;22;20390;-71
2021/09/03 02:59:28;;;;;;;0.70;0.70;;;;;;;12.24;100.00;-19237.16;6251193;22;20856;-71
2021/09/03 03:01:55;;;;;;;0.70;0.60;;;;;;;12.18;100.00;-19177.91;6275527;22;20390;-71
2021/09/03 03:04:22;;;;;;;0.70;0.60;;;;;;;12.15;100.00;-19182.19;6276361;22;20453;-71
2021/09/03 03:06:51;;;;;;;0.70;0.60;;;;;;;12.14;100.00;-19149.28;6276943;22;20387;-71
2021/09/03 03:09:17;;;;;;;0.70;0.60;;;;;;;12.21;100.00;-19063.19;6275725;22;20419;-71
2021/09/03 03:11:44;;;;;;;0.70;0.60;;;;;;;12.14;100.00;-19184.47;6276374;22;20500;-72
2021/09/03 03:14:16;;;;;;;0.70;0.60;;;;;;;12.14;100.00;-19131.69;6276625;22;20846;-71
2021/09/03 03:16:43;;;;;;;1.07;0.97;;;;;;;12.16;100.00;-19041.75;6276261;22;20435;-72
2021/09/03 03:19:10;;;;;;;0.80;0.80;;;;;;;12.19;100.00;-18911.84;6275994;22;20414;-72
2021/09/03 03:21:38;;;;;;;0.73;0.70;;;;;;;12.16;100.00;-18808.22;6275766;22;20441;-71
2021/09/03 03:24:06;;;;;;;0.70;0.60;;;;;;;12.20;100.00;-18660.84;6250241;22;20948;-72
2021/09/03 03:26:33;;;;;;;0.70;0.60;;;;;;;12.13;100.00;-18644.09;6276690;22;20389;-71
2021/09/03 03:29:00;;;;;;;0.70;0.60;;;;;;;12.07;100.00;-18567.53;6274500;22;20394;-71
2021/09/03 03:31:31;;;;;;;0.90;0.90;;;;;;;12.10;100.00;-18434.97;6276036;22;20375;-71
2021/09/03 03:33:58;;;;;;;0.80;0.70;;;;;;;12.08;100.00;-18336.63;6275819;22;20366;-71
2021/09/03 03:36:25;;;;;;;0.70;0.60;;;;;;;12.04;100.00;-18265.25;6275641;22;20406;-71
2021/09/03 03:38:53;;;;;;;0.73;0.70;;;;;;;12.00;100.00;-18224.25;6275750;22;20494;-71
2021/09/03 03:41:21;;;;;;;0.70;0.60;;;;;;;12.00;100.00;-18153.91;6274755;22;20701;-71
2021/09/03 03:43:48;;;;;;;0.70;0.70;;;;;;;11.97;100.00;-18047.59;6248198;22;20890;-71
2021/09/03 03:46:15;;;;;;;0.70;0.60;;;;;;;11.96;100.00;-17997.22;6275528;22;20417;-71
2021/09/03 03:48:43;;;;;;;0.70;0.60;;;;;;;12.00;100.00;-17942.88;6249051;22;20389;-71
2021/09/03 03:51:10;;;;;;;0.83;0.83;;;;;;;11.91;100.00;-18066.44;6275945;22;20712;-71
2021/09/03 03:53:37;;;;;;;0.70;0.60;;;;;;;11.91;100.00;-18136.75;6274862;22;20894;-71
2021/09/03 03:56:04;;;;;;;0.70;0.63;;;;;;;11.93;100.00;-18189.84;6248356;22;20737;-72
2021/09/03 03:58:32;;;;;;;0.70;0.60;;;;;;;11.92;100.00;-18267.59;6275448;22;20381;-71
2021/09/03 04:00:59;;;;;;;0.70;0.60;;;;;;;11.86;100.00;-18286.31;6275390;22;20391;-71
2021/09/03 04:03:26;;;;;;;0.70;0.70;;;;;;;11.91;100.00;-18161.88;6275597;22;20930;-71
2021/09/03 04:05:54;;;;;;;1.10;1.00;;;;;;;11.91;100.00;-18121.56;6248051;22;20722;-71
2021/09/03 04:08:20;;;;;;;0.80;0.70;;;;;;;11.90;100.00;-18061.19;6275722;22;20445;-71
2021/09/03 04:10:50;;;;;;;0.70;0.60;;;;;;;11.93;100.00;-18096.91;6275494;22;20824;-72
2021/09/03 04:13:17;;;;;;;0.70;0.70;;;;;;;11.88;100.00;-18075.78;6248933;22;20500;-70
2021/09/03 04:15:45;;;;;;;0.70;0.60;;;;;;;11.84;100.00;-18017.22;6275527;22;20386;-71
2021/09/03 04:18:12;;;;;;;0.70;0.60;;;;;;;11.79;100.00;-17978.41;6275024;22;20394;-72
2021/09/03 04:20:42;;;;;;;0.70;0.60;;;;;;;11.77;100.00;-17955.34;6276122;22;20407;-73
2021/09/03 04:23:09;;;;;;;0.70;0.60;;;;;;;11.76;100.00;-17852.03;6248456;22;20773;-71
2021/09/03 04:25:37;;;;;;;0.70;0.60;;;;;;;11.70;100.00;-17896.00;6274201;22;20713;-71
2021/09/03 04:28:07;;;;;;;0.70;0.60;;;;;;;11.69;100.00;-17830.38;6275063;22;20375;-71
2021/09/03 04:30:34;;;;;;;0.90;0.80;;;;;;;11.68;100.00;-17908.00;6277455;22;20878;-71
2021/09/03 04:33:03;;;;;;;0.70;0.60;;;;;;;11.69;100.00;-17893.16;6275971;22;20721;-71
2021/09/03 04:35:30;;;;;;;0.70;0.60;;;;;;;11.75;100.00;-17904.66;6275328;22;20421;-71
2021/09/03 04:37:57;;;;;;;0.70;0.70;;;;;;;11.74;100.00;-18009.81;6248689;22;20417;-71
2021/09/03 04:40:24;;;;;;;0.70;0.60;;;;;;;11.74;100.00;-18007.28;6249122;22;20408;-71
2021/09/03 04:42:52;;;;;;;0.67;0.60;;;;;;;11.71;100.00;-18107.06;6275059;22;20401;-72
2021/09/03 04:45:23;;;;;;;0.70;0.60;;;;;;;11.65;100.00;-18183.53;6274970;22;20412;-72
2021/09/03 04:47:50;;;;;;;0.80;0.80;;;;;;;11.66;100.00;-18203.84;6274376;22;20388;-71
2021/09/03 04:50:19;;;;;;;0.70;0.70;;;;;;;11.66;100.00;-18143.56;6278114;22;20393;-71
2021/09/03 04:53:07;;;;;;;1.33;1.23;;;;;;;11.66;100.00;-18141.06;6277430;22;20402;-71
2021/09/03 04:55:34;;;;;;;0.70;0.60;;;;;;;11.60;100.00;-18099.63;6225683;22;20406;-71
2021/09/03 04:58:01;;;;;;;0.70;0.63;;;;;;;11.60;100.00;-18114.81;6277934;22;20508;-71
2021/09/03 05:00:28;;;;;;;0.70;0.70;;;;;;;11.61;100.00;-18200.41;6277690;22;20914;-71
2021/09/03 05:02:55;;;;;;;0.70;0.70;;;;;;;11.63;100.00;-18193.22;6276990;22;20488;-71
2021/09/03 05:05:24;;;;;;;0.70;0.70;;;;;;;11.63;100.00;-18140.50;6277212;22;20422;-71
2021/09/03 05:07:51;;;;;;;0.97;0.87;;;;;;;11.65;100.00;-18155.91;6250057;22;20965;-71
2021/09/03 05:10:18;;;;;;;2.30;2.20;;;;;;;11.66;100.00;-18181.34;6224893;22;20855;-71
2021/09/03 05:12:45;;;;;;;0.80;0.70;;;;;;;11.68;100.00;-18194.25;6277964;22;20394;-72
2021/09/03 05:15:14;;;;;;;0.70;0.60;;;;;;;11.67;100.00;-18231.69;6277527;22;20413;-71
2021/09/03 05:17:49;;;;;;;0.70;0.60;;;;;;;11.68;100.00;-18267.06;6250884;22;20370;-71
2021/09/03 05:20:17;;;;;;;0.70;0.60;;;;;;;11.70;100.00;-18292.75;6277268;22;20381;-71
2021/09/03 05:22:45;;;;;;;0.80;0.77;;;;;;;11.73;100.00;-18328.59;6276845;22;20414;-71
2021/09/03 05:25:14;;;;;;;0.70;0.60;;;;;;;11.72;100.00;-18408.63;6277409;22;20457;-71
2021/09/03 05:27:41;;;;;;;0.70;0.67;;;;;;;11.78;100.00;-18342.22;6277037;22;20433;-71
2021/09/03 05:30:10;;;;;;;0.70;0.60;;;;;;;11.81;100.00;-18330.34;6250319;22;20416;-71
2021/09/03 05:32:37;;;;;;;0.70;0.60;;;;;;;11.87;100.00;-18301.63;6277132;22;20845;-71
2021/09/03 05:35:05;;;;;;;0.70;0.70;;;;;;;11.93;100.00;-18267.72;6250720;22;20914;-71
2021/09/03 05:37:33;;;;;;;0.70;0.60;;;;;;;12.10;100.00;-18259.09;6276819;22;20728;-71
2021/09/03 05:40:03;;;;;;;0.70;0.70;;;;;;;12.20;100.00;-18314.06;6277292;22;20481;-71
2021/09/03 05:42:30;;;;;;;0.70;0.60;;;;;;;12.28;100.00;-18308.50;6249712;22;20406;-71
2021/09/03 05:44:57;;;;;;;1.87;0.93;;;;;;;12.31;100.00;-18371.91;6276345;22;20426;-71
2021/09/03 05:47:24;;;;;;;1.13;1.03;;;;;;;12.38;100.00;-18388.63;6277404;22;20390;-71
2021/09/03 05:49:51;;;;;;;0.70;0.70;;;;;;;12.42;100.00;-18515.13;6277142;22;20371;-71
2021/09/03 05:52:18;;;;;;;0.70;0.70;;;;;;;12.55;100.00;-18457.97;6250383;22;20390;-71
2021/09/03 05:54:45;;;;;;;1.20;0.90;;;;;;;12.67;100.00;-18364.97;6277199;22;20424;-71
2021/09/03 05:57:14;;;;;;;0.70;0.60;;;;;;;12.74;100.00;-18266.00;6249483;22;20394;-71
2021/09/03 05:59:40;;;;;;;0.70;0.70;;;;;;;12.79;100.00;-18136.47;6276748;22;20420;-72
2021/09/03 06:02:07;;;;;;;1.50;1.07;;;;;;;12.96;100.00;-17964.09;6276871;22;20879;-70
2021/09/03 06:04:35;;;;;;;0.80;0.70;;;;;;;13.07;100.00;-17843.16;6276646;22;20390;-71
2021/09/03 06:07:02;;;;;;;1.37;1.27;;;;;;;13.21;100.00;-17707.81;6250069;22;20403;-72
2021/09/03 06:09:29;;;;;;;0.70;0.60;;;;;;;13.44;100.00;-17541.56;6276855;22;20797;-71
2021/09/03 06:11:57;;;;;;;0.70;0.70;;;;;;;13.59;100.00;-17431.25;6277392;22;20397;-71
2021/09/03 06:14:26;;;;;;;0.70;0.60;;;;;;;13.81;100.00;-17282.28;6275854;22;20383;-71
2021/09/03 06:16:53;;;;;;;0.70;0.70;;;;;;;14.00;100.00;-16993.91;6277062;22;20393;-71
2021/09/03 06:19:20;;;;;;;0.70;0.60;;;;;;;14.20;100.00;-16659.91;6249347;22;20386;-71
2021/09/03 06:21:47;;;;;;;0.80;0.80;;;;;;;14.34;100.00;-16163.19;6248208;22;20497;-70
2021/09/03 06:27:14;;;;;;;1.13;1.03;;;;;;;14.67;100.00;-14750.34;6226259;22;20432;-71
2021/09/03 06:29:42;;;;;;;0.80;0.80;;;;;;;14.74;100.00;-13917.94;6249963;22;20922;-71
2021/09/03 06:32:16;;;;;;;1.87;1.77;;;;;;;14.92;100.00;-13046.06;6276246;22;20372;-71
2021/09/03 06:34:45;;;;;;;0.70;0.63;;;;;;;15.03;100.00;-12309.19;6223947;22;20411;-71
2021/09/03 06:37:13;;;;;;;0.70;0.70;;;;;;;15.12;100.00;-11374.38;6276282;22;20818;-71
2021/09/03 06:39:41;;;;;;;0.70;0.70;;;;;;;15.27;100.00;-10166.22;6276526;22;20446;-71
2021/09/03 06:42:09;;;;;;;0.77;0.73;;;;;;;15.33;100.00;-9270.38;6276618;22;21047;-71
2021/09/03 06:44:37;;;;;;;1.13;1.03;;;;;;;15.31;100.00;-8368.50;6249567;22;20416;-71
2021/09/03 06:47:06;;;;;;;0.70;0.60;;;;;;;15.45;100.00;-7117.50;6276776;22;20389;-72
2021/09/03 06:49:34;;;;;;;0.70;0.70;;;;;;;15.54;100.00;-6123.97;6275958;22;20893;-71
2021/09/03 06:52:02;;;;;;;1.43;1.27;;;;;;;15.59;100.00;-5035.97;6276333;22;20395;-72
2021/09/03 06:54:29;;;;;;;0.70;0.70;;;;;;;15.70;100.00;-3594.56;6249117;22;20410;-71
2021/09/03 06:56:56;;;;;;;0.80;0.70;;;;;;;15.86;100.00;-2047.69;6276891;22;20822;-72
2021/09/03 06:59:22;;;;;;;0.80;0.80;;;;;;;15.96;100.00;-558.13;6276367;22;20369;-72
2021/09/03 07:01:49;;;;;;;1.07;0.97;;;;;;;15.98;100.00;977.72;6276703;22;20392;-72
2021/09/03 07:04:18;;;;;;;0.80;0.80;;;;;;;16.08;100.00;2573.84;6276089;22;20756;-72
2021/09/03 07:06:46;;;;;;;0.80;0.80;;;;;;;16.32;100.00;4208.75;6249267;22;20485;-72
2021/09/03 07:09:13;;;;;;;0.80;0.70;;;;;;;16.59;100.00;6006.75;6276355;22;20415;-71
2021/09/03 07:11:40;;;;;;;0.70;0.63;;;;;;;16.67;100.00;7584.28;6276765;22;20386;-72
2021/09/03 07:14:07;;;;;;;0.70;0.70;;;;;;;16.92;100.00;9585.31;6276030;22;20382;-72
2021/09/03 07:16:34;;;;;;;2.17;1.00;;;;;;;17.12;100.00;11529.41;6276168;22;20387;-72
2021/09/03 07:19:03;;;;;;;0.87;0.87;;;;;;;17.31;100.00;13347.44;6276499;22;20386;-72
2021/09/03 07:21:34;;;;;;;0.93;0.87;;;;;;;17.79;100.00;15712.06;6276660;22;20374;-73
2021/09/03 07:24:02;;;;;;;0.70;0.70;;;;;;;18.16;100.00;17551.94;6276354;22;20467;-72
2021/09/03 07:26:29;;;;;;;0.70;0.60;;;;;;;18.38;100.00;19538.63;6276254;22;20422;-72
2021/09/03 07:28:57;;;;;;;1.40;1.17;;;;;;;18.69;100.00;21369.63;6249011;22;20413;-72
2021/09/03 07:31:25;;;;;;;0.70;0.70;;;;;;;18.81;100.00;22675.38;6276203;22;20663;-72
2021/09/03 07:33:54;;;;;;;0.70;0.70;;;;;;;19.10;100.00;24329.53;6248965;22;20403;-72
2021/09/03 07:36:21;;;;;;;0.80;0.70;;;;;;;19.37;100.00;25851.56;6276247;22;20386;-72
2021/09/03 07:38:49;;;;;;;0.80;0.70;;;;;;;19.43;100.00;25169.22;6249954;22;20409;-73
2021/09/03 07:41:17;;;;;;;0.80;0.70;;;;;;;19.80;100.00;24745.84;6276467;22;20717;-72
2021/09/03 07:43:44;;;;;;;1.13;1.00;;;;;;;19.92;100.00;18367.53;6275981;22;20426;-73
2021/09/03 07:46:12;;;;;;;0.70;0.60;;;;;;;20.27;100.00;4116.50;6248956;22;20469;-73
2021/09/03 07:48:39;;;;;;;0.80;0.70;;;;;;;20.28;100.00;-20120.28;6275598;22;20437;-73
2021/09/03 07:51:07;;;;;;;0.80;0.70;;;;;;;20.57;100.00;-21238.91;6276684;22;20368;-73
2021/09/03 07:53:34;;;;;;;0.80;0.70;;;;;;;20.46;100.00;-21236.03;6249613;22;20706;-73
2021/09/03 07:56:03;;;;;;;0.70;0.60;;;;;;;20.25;100.00;-21230.44;6276427;22;20370;-72
2021/09/03 07:58:31;;;;;;;1.30;0.80;;;;;;;20.32;100.00;-21232.09;6276537;22;20828;-73
2021/09/03 08:01:00;;;;;;;0.93;0.93;;;;;;;20.51;100.00;-21237.28;6248597;22;20429;-72
2021/09/03 08:03:27;;;;;;;0.70;0.60;;;;;;;20.86;100.00;-21246.69;6275960;22;20353;-72
2021/09/03 08:05:55;;;;;;;0.80;0.80;;;;;;;21.03;100.00;-21251.06;6276718;22;20410;-72
2021/09/03 08:08:22;;;;;;;2.40;0.80;;;;;;;21.18;100.00;-21255.28;6278430;22;20396;-72
2021/09/03 08:10:49;;;;;;;0.80;0.70;;;;;;;21.23;100.00;-21256.53;6278232;22;20375;-72
2021/09/03 08:13:18;;;;;;;0.80;0.70;;;;;;;21.53;100.00;-21264.56;6277645;22;20822;-73
2021/09/03 08:15:45;;;;;;;1.03;0.93;;;;;;;21.77;100.00;-21270.97;6224285;22;20465;-72
2021/09/03 08:18:13;;;;;;;0.80;0.70;;;;;;;21.60;100.00;-21266.47;6250316;22;20863;-72
2021/09/03 08:20:42;;;;;;;1.10;0.97;;;;;;;21.64;100.00;-21267.56;6277461;22;20371;-72
2021/09/03 08:23:09;;;;;;;0.87;0.87;;;;;;;21.50;100.00;-21263.63;6278096;22;20403;-72
2021/09/03 08:25:36;;;;;;;2.60;2.40;;;;;;;21.73;100.00;-21269.75;6277474;22;20422;-71
2021/09/03 08:28:24;;;;;;;0.80;0.70;;;;;;;21.83;100.00;-21272.47;6255070;22;20411;-72
2021/09/03 08:30:51;;;;;;;0.90;0.73;;;;;;;21.91;100.00;-21274.78;6278239;22;20847;-72
2021/09/03 08:33:18;;;;;;;0.70;0.60;;;;;;;22.30;100.00;-21285.00;6251157;22;20391;-73
2021/09/03 08:35:47;;;;;;;0.83;0.83;;;;;;;22.32;100.00;-21285.56;6277885;22;20470;-72
2021/09/03 08:38:14;;;;;;;2.90;0.83;;;;;;;22.42;100.00;-21288.28;6278115;22;20409;-73
2021/09/03 08:40:42;;;;;;;0.80;0.70;;;;;;;23.42;100.00;-21314.81;6278110;22;20754;-73
2021/09/03 08:43:09;;;;;;;0.70;0.60;;;;;;;23.98;100.00;-21329.91;6277024;22;20674;-69
2021/09/03 08:45:39;;;;;;;0.70;0.60;;;;;;;24.91;100.00;-21354.59;6277348;22;20419;-70
2021/09/03 08:48:07;;;;;;;5.87;2.00;;;;;;;24.89;100.00;-21354.06;6278370;22;20394;-70
2021/09/03 08:50:34;;;;;;;0.70;0.50;;;;;;;25.01;100.00;-21357.31;6277877;22;20883;-71
2021/09/03 08:53:02;;;;;;;1.40;1.30;;;;;;;25.81;100.00;-21378.47;6277449;22;20411;-70
2021/09/03 08:55:30;;;;;;;0.80;0.70;;;;;;;26.10;100.00;-21386.06;6278074;22;20422;-70
2021/09/03 08:57:57;;;;;;;1.00;0.90;;;;;;;26.52;100.00;-21397.16;6251310;22;20387;-70
2021/09/03 09:00:26;;;;;;;0.90;0.60;;;;;;;27.30;100.00;-21417.84;6276987;22;20947;-71
2021/09/03 09:03:05;;;;;;;1.10;0.80;;;;;;;26.83;100.00;-21405.53;6250150;22;20399;-70
2021/09/03 09:05:53;;;;;;;0.80;0.70;;;;;;;27.22;100.00;-21415.81;6277612;22;20462;-71
2021/09/03 09:08:22;;;;;;;0.90;0.63;;;;;;;28.34;100.00;-21445.41;6249518;22;20472;-71
2021/09/03 09:10:54;;;;;;;0.80;0.80;;;;;;;28.63;100.00;-21453.09;6277100;22;20367;-71
2021/09/03 09:13:22;;;;;;;0.90;0.60;;;;;;;28.04;100.00;-21437.44;6225541;22;20460;-71
2021/09/03 09:16:09;;;;;;;0.80;0.60;;;;;;;27.69;100.00;-21428.41;6251243;22;20383;-71
2021/09/03 09:18:44;;;;;;;0.90;0.60;;;;;;;28.10;100.00;-21439.06;6276753;22;20363;-71
2021/09/03 09:21:15;;;;;;;2.03;1.43;;;;;;;27.58;100.00;-21425.41;6277190;22;20401;-71
2021/09/03 09:23:47;;;;;;;0.90;0.70;;;;;;;28.13;100.00;-21440.00;6277005;22;20412;-71
2021/09/03 09:26:16;;;;;;;0.80;0.60;;;;;;;28.86;100.00;-21459.28;6277396;22;20414;-71
2021/09/03 09:28:44;;;;;;;0.80;0.60;;;;;;;28.65;100.00;-21453.63;6276853;22;20481;-70
2021/09/03 09:31:25;;;;;;;0.90;0.67;;;;;;;28.30;100.00;-21444.47;6277203;22;20421;-71
2021/09/03 09:33:55;;;;;;;0.90;0.60;;;;;;;28.47;100.00;-21448.78;6277275;22;20371;-70
2021/09/03 09:36:22;;;;;;;1.20;0.90;;;;;;;27.85;100.00;-21432.59;6249715;22;20441;-71
2021/09/03 09:38:49;;;;;;;2.27;0.70;;;;;;;28.93;100.00;-21460.91;6276429;22;20456;-70
2021/09/03 09:41:21;;;;;;;1.00;0.90;;;;;;;28.72;100.00;-21455.38;6277376;22;20477;-70
2021/09/03 09:43:48;;;;;;;1.03;0.87;;;;;;;28.38;100.00;-21446.63;6277237;22;20422;-71
2021/09/03 09:46:20;;;;;;;0.83;0.70;;;;;;;28.82;100.00;-21458.09;6250174;22;20517;-71
2021/09/03 09:49:12;;;;;;;0.80;0.60;;;;;;;29.07;100.00;-21464.69;6249596;22;20448;-71
2021/09/03 09:51:48;;;;;;;0.90;0.70;;;;;;;29.28;100.00;-21470.34;6277879;22;20378;-70
2021/09/03 09:54:18;;;;;;;2.13;1.10;;;;;;;29.44;100.00;-21474.41;6250495;22;20402;-70
2021/09/03 09:56:48;;;;;;;1.40;1.00;;;;;;;30.04;100.00;-21490.28;6276241;22;20367;-70
2021/09/03 09:59:17;;;;;;;1.10;0.90;;;;;;;29.96;100.00;-21488.13;6276987;22;20724;-70
2021/09/03 10:01:46;;;;;;;0.90;0.70;;;;;;;30.09;100.00;-21491.63;6250434;22;20398;-71
2021/09/03 10:04:17;;;;;;;0.90;0.70;;;;;;;29.77;100.00;-21483.28;6276962;22;20811;-72
2021/09/03 10:06:46;;;;;;;1.47;0.90;;;;;;;30.65;100.00;-21506.44;6276935;22;20410;-71
2021/09/03 10:09:14;;;;;;;1.37;0.90;;;;;;;30.14;100.00;-21492.84;6277257;22;20414;-71
2021/09/03 10:11:43;;;;;;;3.87;0.97;;;;;;;29.57;100.00;-21477.91;6248734;22;20870;-71
2021/09/03 10:14:12;;;;;;;1.30;0.60;;;;;;;29.53;100.00;-21476.97;6247592;22;20806;-70
2021/09/03 10:16:43;;;;;;;1.03;0.60;;;;;;;30.37;100.00;-21498.91;6250638;22;20381;-71
2021/09/03 10:19:13;;;;;;;1.30;0.97;;;;;;;30.13;100.00;-21492.72;6276736;22;20482;-70
2021/09/03 10:21:43;;;;;;;1.33;0.90;;;;;;;29.64;100.00;-21479.66;6277514;22;20406;-70
2021/09/03 10:24:14;;;;;;;1.50;1.40;;;;;;;29.99;100.00;-21488.94;6276626;22;20438;-71
2021/09/03 10:26:43;;;;;;;1.23;0.80;;;;;;;30.20;100.00;-21494.59;6276784;22;20441;-70
2021/09/03 10:29:18;;;;;;;0.80;0.60;;;;;;;29.76;100.00;-21483.03;6276866;22;20412;-71
2021/09/03 10:32:16;;;;;;;1.20;1.07;;;;;;;30.04;100.00;-21490.28;6276866;22;20371;-72
2021/09/03 10:35:03;;;;;;;2.03;0.80;;;;;;;30.26;100.00;-21496.19;6267031;22;20874;-70
2021/09/03 10:37:36;;;;;;;0.90;0.70;;;;;;;29.41;100.00;-21473.59;6250339;22;20398;-71
2021/09/03 10:40:20;;;;;;;0.90;0.60;;;;;;;30.16;100.00;-21493.38;6277141;22;20420;-71
2021/09/03 10:42:51;;;;;;;1.90;0.90;;;;;;;29.88;100.00;-21485.97;6249315;22;20402;-70
2021/09/03 10:45:23;;;;;;;1.13;1.03;;;;;;;28.98;100.00;-21462.25;6276541;22;20877;-71
2021/09/03 10:48:15;;;;;;;0.80;0.60;;;;;;;29.46;100.00;-21475.06;6250112;22;20485;-70
2021/09/03 10:50:50;;;;;;;1.33;0.60;;;;;;;29.90;100.00;-21486.66;6275252;22;20834;-70
2021/09/03 10:53:35;;;;;;;1.63;1.13;;;;;;;29.36;100.00;-21472.50;6276775;22;20403;-70
2021/09/03 10:56:09;;;;;;;1.30;0.97;;;;;;;29.80;100.00;-21484.09;6276543;22;20889;-70
2021/09/03 10:58:44;;;;;;;0.90;0.70;;;;;;;30.05;100.00;-21490.56;6276282;22;20394;-70
2021/09/03 11:01:49;;;;;;;1.00;0.60;;;;;;;30.00;100.00;-21489.34;6249231;22;20418;-71
2021/09/03 11:04:18;;;;;;;0.90;0.80;;;;;;;30.37;100.00;-21498.91;6249413;22;20172;-71
2021/09/03 11:07:02;;;;;;;1.27;1.17;;;;;;;30.59;100.00;-21504.81;6249267;22;20454;-71
2021/09/03 11:09:32;;;;;;;0.80;0.60;;;;;;;30.09;100.00;-21491.63;6249208;22;20974;-72
2021/09/03 11:12:05;;;;;;;0.90;0.63;;;;;;;30.70;100.00;-21507.75;6249411;22;20448;-71
2021/09/03 11:14:32;;;;;;;0.87;0.60;;;;;;;30.75;100.00;-21509.13;6276696;22;20828;-72
2021/09/03 11:17:01;;;;;;;0.80;0.60;;;;;;;31.24;100.00;-21521.88;6276331;22;20436;-70
2021/09/03 11:19:32;;;;;;;1.10;0.70;;;;;;;30.68;100.00;-21507.22;6276027;22;20856;-71
2021/09/03 11:22:01;;;;;;;1.53;0.80;;;;;;;30.52;100.00;-21502.94;6276558;22;20363;-71
2021/09/03 11:24:30;;;;;;;1.13;0.80;;;;;;;30.37;100.00;-21499.03;6276064;22;20478;-72
2021/09/03 11:27:01;;;;;;;1.83;1.00;;;;;;;31.05;100.00;-21516.91;6275853;22;20441;-72
2021/09/03 11:29:30;;;;;;;1.00;0.70;;;;;;;31.39;100.00;-21525.91;6276180;22;20855;-71
2021/09/03 11:32:04;;;;;;;0.90;0.70;;;;;;;31.00;100.00;-21515.56;6276454;22;20373;-71